Belle Valley, OH (43717)

4:17 PM EDT on August 25, 2016 (GMT -0400)
APRSWXNET | | Change Station
Active Advisory: Special Statement

Elev 941 ft 39.90 °N, 81.50 °W | Updated 21 minutes ago

Clear
Clear
86 °F
Feels Like 96 °F
N
2
Wind Variable Wind from WNW
Gusts 7.0 mph

Today
High -- | Low -- °F
--% Chance of Precip.
Yesterday
High -- | Low -- °F
Precip. -- in
Pressure 30.02 in
Visibility 10.0 miles
Clouds Clear
Heat Index 96 °F
Dew Point 76 °F
Humidity 72%
Rainfall in
Snow Depth Not available.
6:48 AM 8:07 PM
Last Quarter, 42% visible
METAR KZZV 251953Z AUTO 22007KT 10SM CLR 31/23 A3004 RMK AO2 LTG DSNT SE AND S SLP164 T03110233
Pressure 30.02 in
Visibility 10.0 miles
Clouds Clear
Heat Index 96 °F
Dew Point 76 °F
Humidity 72%
Rainfall in
Snow Depth Not available.
6:48 AM 8:07 PM
Last Quarter, 42% visible
METAR KZZV 251953Z AUTO 22007KT 10SM CLR 31/23 A3004 RMK AO2 LTG DSNT SE AND S SLP164 T03110233
A tropical disturbance pushing toward the Bahamas, is expected to develop into a tropical depression or storm, and will likely target Florida and the Gulf Coast this weekend into next week.

Right now, the disturbance remains a broad area of low pressure pushing through the Dominican Republic and Haiti, headed toward the southeast Bahamas. Rainfall totals over 3 inches (with locally higher amounts) are expected in HispaƱiola, particularly over elevated terrain.

10-Day Weather Forecast

Almanac

Astronomy

Aug. 25, 2016 Rise Set
Actual Time
Civil Twilight
Nautical Twilight
Astronomical Twilight
Moon
Length of Visible Light
Length of Day
Tomorrow will be .
, % of the Moon is Illuminated

Today's Extremes

State Highs State Lows

Community

WunderPhotos

Upload Photos

1,934,921 photos uploaded!

WunderBlog® & News

Nearby

Air Quality

  Air Quality AQ Index Pollutant
Not available.

Snow Depth

Station Depth Elevation

Earthquake Activity

City Distance Mag. Time & Date
Minimum magnitude displayed is 2.5.

Coastal Water Temperatures

Place Temperature

Stations

Nearby Weather Stations

Station Location Temp. Windchill Dew Point Humidity Wind Precip. Elev Updated Type
                   

Watches & Warnings

Special Statement
Issued: 9:52 AM EDT Aug. 25, 2016 – National Weather Service

... Heat index values will approach 100 degrees today...

A combination of high temperatures in the lower 90s and dewpoints
surging into the mid 70s will cause heat index values to approach
100 degrees this afternoon. Extra precaution should be taken to
care for those susceptible to heat related illnesses.



952 am EDT Thu Aug 25 2016

... Heat index values will approach 100 degrees today...

A combination of high temperatures in the lower 90s and dewpoints
surging into the mid 70s will cause heat index values to approach
100 degrees this afternoon. Extra precaution should be taken to
care for those susceptible to heat related illnesses.